createdAt,value
2022-08-21T00:00:34.688Z,0.00
2022-08-21T00:01:34.665Z,0.00
2022-08-21T00:02:37.720Z,0.00
2022-08-21T00:03:37.708Z,0.00
2022-08-21T00:04:34.626Z,0.00
2022-08-21T00:05:34.617Z,0.00
2022-08-21T00:06:34.598Z,0.00
2022-08-21T00:07:34.623Z,0.00
2022-08-21T00:08:34.578Z,0.00
2022-08-21T00:09:34.556Z,0.00
2022-08-21T00:10:35.314Z,0.00
2022-08-21T00:11:34.583Z,0.00
2022-08-21T00:12:34.550Z,0.00
2022-08-21T00:13:34.500Z,0.00
2022-08-21T00:14:34.492Z,0.00
2022-08-21T00:15:35.241Z,0.00
2022-08-21T00:16:34.495Z,0.00
2022-08-21T00:17:34.482Z,0.00
2022-08-21T00:18:34.441Z,0.00
2022-08-21T00:19:34.421Z,0.00
2022-08-21T00:20:35.174Z,0.00
2022-08-21T00:21:34.424Z,0.00
2022-08-21T00:22:37.427Z,0.00
2022-08-21T00:23:37.395Z,0.00
2022-08-21T00:24:34.415Z,0.00
2022-08-21T00:25:34.355Z,0.00
2022-08-21T00:26:34.380Z,0.00
2022-08-21T00:27:34.316Z,0.00
2022-08-21T00:28:34.314Z,0.00
2022-08-21T00:29:34.308Z,0.00
2022-08-21T00:30:35.025Z,0.00
2022-08-21T00:31:34.281Z,0.00
2022-08-21T00:32:34.257Z,0.00
2022-08-21T00:33:34.279Z,0.00
2022-08-21T00:34:34.232Z,0.00
2022-08-21T00:35:34.208Z,0.00
2022-08-21T00:36:34.188Z,0.00
2022-08-21T00:37:35.308Z,0.00
2022-08-21T00:38:34.169Z,0.00
2022-08-21T00:39:34.215Z,0.00
2022-08-21T00:40:34.137Z,0.00
2022-08-21T00:41:38.661Z,0.00
2022-08-21T00:42:37.113Z,0.00
2022-08-21T00:43:37.123Z,0.00
2022-08-21T00:44:34.109Z,0.00
2022-08-21T00:45:34.062Z,0.00
2022-08-21T00:46:34.052Z,0.00
2022-08-21T00:47:34.047Z,0.00
2022-08-21T00:48:34.023Z,0.00
2022-08-21T00:49:34.074Z,0.00
2022-08-21T00:50:34.004Z,0.00
2022-08-21T00:51:38.192Z,0.00
2022-08-21T00:52:33.973Z,0.00
2022-08-21T00:53:33.954Z,0.00
2022-08-21T00:54:33.952Z,0.00
2022-08-21T00:55:33.976Z,0.00
2022-08-21T00:56:33.926Z,0.00
2022-08-21T00:57:33.916Z,0.00
2022-08-21T00:58:33.898Z,0.00
2022-08-21T00:59:33.877Z,0.00
2022-08-21T01:00:34.018Z,0.00
2022-08-21T01:01:33.889Z,0.00
2022-08-21T01:02:36.848Z,0.00
2022-08-21T01:03:36.835Z,0.00
2022-08-21T01:04:33.809Z,0.00
2022-08-21T01:05:33.799Z,0.00
2022-08-21T01:06:33.839Z,0.00
2022-08-21T01:07:33.771Z,0.00
2022-08-21T01:08:33.752Z,0.00
2022-08-21T01:09:33.741Z,0.00
2022-08-21T01:10:33.755Z,0.00
2022-08-21T01:11:33.718Z,0.00
2022-08-21T01:12:33.722Z,0.00
2022-08-21T01:13:33.691Z,0.00
2022-08-21T01:14:33.685Z,0.00
2022-08-21T01:15:33.664Z,0.00
2022-08-21T01:16:33.652Z,0.00
2022-08-21T01:17:33.693Z,0.00
2022-08-21T01:18:33.622Z,0.00
2022-08-21T01:19:33.603Z,0.00
2022-08-21T01:20:33.594Z,0.00
2022-08-21T01:21:33.585Z,0.00
2022-08-21T01:22:36.634Z,0.00
2022-08-21T01:23:36.564Z,0.00
2022-08-21T01:24:33.536Z,0.00
2022-08-21T01:25:33.529Z,0.00
2022-08-21T01:26:34.114Z,0.00
2022-08-21T01:27:33.496Z,0.00
2022-08-21T01:28:33.516Z,0.00
2022-08-21T01:29:33.468Z,0.00
2022-08-21T01:30:33.458Z,0.00
2022-08-21T01:31:33.446Z,0.00
2022-08-21T01:32:33.429Z,0.00
2022-08-21T01:33:33.453Z,0.00
2022-08-21T01:34:33.429Z,0.00
2022-08-21T01:35:33.392Z,0.00
2022-08-21T01:36:33.379Z,0.00
2022-08-21T01:37:33.370Z,0.00
2022-08-21T01:38:33.371Z,0.00
2022-08-21T01:39:33.338Z,0.00
2022-08-21T01:40:33.329Z,0.00
2022-08-21T01:41:33.309Z,0.00
2022-08-21T01:42:36.307Z,0.00
2022-08-21T01:43:39.467Z,0.00
2022-08-21T01:44:33.263Z,0.00
2022-08-21T01:45:33.264Z,0.00
2022-08-21T01:46:33.244Z,0.00
2022-08-21T01:47:33.223Z,0.00
2022-08-21T01:48:33.212Z,0.00
2022-08-21T01:49:33.224Z,0.00
2022-08-21T01:50:33.191Z,0.00
2022-08-21T01:51:33.204Z,0.00
2022-08-21T01:52:33.156Z,0.00
2022-08-21T01:53:33.734Z,0.00
2022-08-21T01:54:33.126Z,0.00
2022-08-21T01:55:33.119Z,0.00
2022-08-21T01:56:33.115Z,0.00
2022-08-21T01:57:33.116Z,0.00
2022-08-21T01:58:33.133Z,0.00
2022-08-21T01:59:33.065Z,0.00
2022-08-21T02:00:33.068Z,0.00
2022-08-21T02:01:33.061Z,0.00
2022-08-21T02:02:36.036Z,0.00
2022-08-21T02:03:36.442Z,0.00
2022-08-21T02:04:33.021Z,0.00
2022-08-21T02:05:32.980Z,0.00
2022-08-21T02:06:32.969Z,0.00
2022-08-21T02:07:32.971Z,0.00
2022-08-21T02:08:32.942Z,0.00
2022-08-21T02:09:32.959Z,0.00
2022-08-21T02:10:32.911Z,0.00
2022-08-21T02:11:32.992Z,0.00
2022-08-21T02:12:32.890Z,0.00
2022-08-21T02:13:32.872Z,0.00
2022-08-21T02:14:33.217Z,0.00
2022-08-21T02:15:32.835Z,0.00
2022-08-21T02:16:32.834Z,0.00
2022-08-21T02:17:32.851Z,0.00
2022-08-21T02:18:32.804Z,0.00
2022-08-21T02:19:39.583Z,0.00
2022-08-21T02:20:33.825Z,0.00
2022-08-21T02:21:32.764Z,0.00
2022-08-21T02:22:35.754Z,0.00
2022-08-21T02:23:35.748Z,0.00
2022-08-21T02:24:32.724Z,0.00
2022-08-21T02:25:32.707Z,0.00
2022-08-21T02:26:32.725Z,0.00
2022-08-21T02:27:32.788Z,0.00
2022-08-21T02:28:33.667Z,0.00
2022-08-21T02:29:32.648Z,0.00
2022-08-21T02:30:32.648Z,0.00
2022-08-21T02:31:32.629Z,0.00
2022-08-21T02:32:32.624Z,0.00
2022-08-21T02:33:32.636Z,0.00
2022-08-21T02:34:32.589Z,0.00
2022-08-21T02:35:32.597Z,0.00
2022-08-21T02:36:32.579Z,0.00
2022-08-21T02:37:32.555Z,0.00
2022-08-21T02:38:32.624Z,0.00
2022-08-21T02:39:32.531Z,0.00
2022-08-21T02:40:32.521Z,0.00
2022-08-21T02:41:32.493Z,0.00
2022-08-21T02:42:35.486Z,0.00
2022-08-21T02:43:35.543Z,0.00
2022-08-21T02:44:34.372Z,0.00
2022-08-21T02:45:32.441Z,0.00
2022-08-21T02:46:32.423Z,0.00
2022-08-21T02:47:32.426Z,0.00
2022-08-21T02:48:32.393Z,0.00
2022-08-21T02:49:32.576Z,0.00
2022-08-21T02:50:32.365Z,0.00
2022-08-21T02:51:32.356Z,0.00
2022-08-21T02:52:32.336Z,0.00
2022-08-21T02:53:32.329Z,0.00
2022-08-21T02:54:32.326Z,0.00
2022-08-21T02:55:32.334Z,0.00
2022-08-21T02:56:32.298Z,0.00
2022-08-21T02:57:32.267Z,0.00
2022-08-21T02:58:32.266Z,0.00
2022-08-21T02:59:32.267Z,0.00
2022-08-21T03:00:32.228Z,0.00
2022-08-21T03:01:32.298Z,0.00
2022-08-21T03:02:35.214Z,0.00
2022-08-21T03:03:35.212Z,0.00
2022-08-21T03:04:32.329Z,0.00
2022-08-21T03:05:32.165Z,0.00
2022-08-21T03:06:32.148Z,0.00
2022-08-21T03:07:32.152Z,0.00
2022-08-21T03:08:32.122Z,0.00
2022-08-21T03:09:32.110Z,0.00
2022-08-21T03:10:32.126Z,0.00
2022-08-21T03:11:32.081Z,0.00
2022-08-21T03:12:32.061Z,0.00
2022-08-21T03:13:32.073Z,0.00
2022-08-21T03:14:32.112Z,0.00
2022-08-21T03:15:32.023Z,0.00
2022-08-21T03:16:34.861Z,0.00
2022-08-21T03:17:31.994Z,0.00
2022-08-21T03:18:31.987Z,0.00
2022-08-21T03:19:31.975Z,0.00
2022-08-21T03:20:31.994Z,0.00
2022-08-21T03:21:31.955Z,0.00
2022-08-21T03:22:34.935Z,0.00
2022-08-21T03:23:34.949Z,0.00
2022-08-21T03:24:31.972Z,0.00
2022-08-21T03:25:39.777Z,0.00
2022-08-21T03:26:32.876Z,0.00
2022-08-21T03:27:31.861Z,0.00
2022-08-21T03:28:31.845Z,0.00
2022-08-21T03:29:31.858Z,0.00
2022-08-21T03:30:31.848Z,0.00
2022-08-21T03:31:31.813Z,0.00
2022-08-21T03:32:31.791Z,0.00
2022-08-21T03:33:31.779Z,0.00
2022-08-21T03:34:31.766Z,0.00
2022-08-21T03:35:31.755Z,0.00
2022-08-21T03:36:31.760Z,0.00
2022-08-21T03:37:31.730Z,0.00
2022-08-21T03:38:31.710Z,0.00
2022-08-21T03:39:31.698Z,0.00
2022-08-21T03:40:31.682Z,0.00
2022-08-21T03:41:31.702Z,4.00
2022-08-21T03:42:34.652Z,4.00
2022-08-21T03:43:34.653Z,0.00
2022-08-21T03:44:31.624Z,0.00
2022-08-21T03:45:31.612Z,4.00
2022-08-21T03:46:31.640Z,4.00
2022-08-21T03:47:31.584Z,0.00
2022-08-21T03:48:31.573Z,4.00
2022-08-21T03:49:31.555Z,8.00
2022-08-21T03:50:31.547Z,4.00
2022-08-21T03:51:31.695Z,8.00
2022-08-21T03:52:31.533Z,8.00
2022-08-21T03:53:31.512Z,8.00
2022-08-21T03:54:31.485Z,12.00
2022-08-21T03:55:31.475Z,16.00
2022-08-21T03:56:31.482Z,16.00
2022-08-21T03:57:31.505Z,16.00
2022-08-21T03:58:31.435Z,20.00
2022-08-21T03:59:31.417Z,20.00
2022-08-21T04:00:31.408Z,24.00
2022-08-21T04:01:31.407Z,28.00
2022-08-21T04:02:34.470Z,28.00
2022-08-21T04:03:34.398Z,32.00
2022-08-21T04:04:31.351Z,36.00
2022-08-21T04:05:31.340Z,40.00
2022-08-21T04:06:35.783Z,44.00
2022-08-21T04:07:32.327Z,48.00
2022-08-21T04:08:31.321Z,56.00
2022-08-21T04:09:31.292Z,64.00
2022-08-21T04:10:31.273Z,72.00
2022-08-21T04:11:31.272Z,80.00
2022-08-21T04:12:31.241Z,92.00
2022-08-21T04:13:31.251Z,104.00
2022-08-21T04:14:31.212Z,112.00
2022-08-21T04:15:31.213Z,124.00
2022-08-21T04:16:31.198Z,136.00
2022-08-21T04:17:31.211Z,144.00
2022-08-21T04:18:31.183Z,160.00
2022-08-21T04:19:31.146Z,176.00
2022-08-21T04:20:31.144Z,196.00
2022-08-21T04:21:31.123Z,212.00
2022-08-21T04:22:34.106Z,232.00
2022-08-21T04:23:34.146Z,256.00
2022-08-21T04:24:31.075Z,284.00
2022-08-21T04:25:31.066Z,312.00
2022-08-21T04:26:31.063Z,348.00
2022-08-21T04:27:31.045Z,380.00
2022-08-21T04:28:31.281Z,412.00
2022-08-21T04:29:31.019Z,456.00
2022-08-21T04:30:31.057Z,504.00
2022-08-21T04:31:30.986Z,540.00
2022-08-21T04:32:30.969Z,576.00
2022-08-21T04:33:30.959Z,624.00
2022-08-21T04:34:30.939Z,676.00
2022-08-21T04:35:30.945Z,732.00
2022-08-21T04:36:30.939Z,772.00
2022-08-21T04:37:42.297Z,808.00
2022-08-21T04:38:36.487Z,852.00
2022-08-21T04:39:31.876Z,920.00
2022-08-21T04:40:31.005Z,996.00
2022-08-21T04:41:30.909Z,1060.00
2022-08-21T04:42:33.838Z,1112.00
2022-08-21T04:43:33.841Z,1164.00
2022-08-21T04:44:30.843Z,1228.00
2022-08-21T04:45:30.796Z,1288.00
2022-08-21T04:46:30.778Z,1344.00
2022-08-21T04:47:41.802Z,1416.00
2022-08-21T04:48:31.780Z,1488.00
2022-08-21T04:49:30.752Z,1560.00
2022-08-21T04:50:30.729Z,1724.00
2022-08-21T04:51:30.917Z,1896.00
2022-08-21T04:52:30.702Z,1992.00
2022-08-21T04:53:30.727Z,1944.00
2022-08-21T04:54:30.671Z,1856.00
2022-08-21T04:55:30.661Z,1920.00
2022-08-21T04:56:30.649Z,1972.00
2022-08-21T04:57:39.724Z,2084.00
2022-08-21T04:58:31.650Z,2668.00
2022-08-21T04:59:30.609Z,2940.00
2022-08-21T05:00:30.602Z,3464.00
2022-08-21T05:01:30.590Z,3744.00
2022-08-21T05:02:33.564Z,3944.00
2022-08-21T05:03:33.601Z,4120.00
2022-08-21T05:04:30.533Z,4256.00
2022-08-21T05:05:30.532Z,4524.00
2022-08-21T05:06:30.511Z,4732.00
2022-08-21T05:07:42.687Z,4888.00
2022-08-21T05:08:31.491Z,5040.00
2022-08-21T05:09:30.501Z,5020.00
2022-08-21T05:10:30.476Z,5112.00
2022-08-21T05:11:30.446Z,5252.00
2022-08-21T05:12:30.436Z,5496.00
2022-08-21T05:13:30.416Z,5760.00
2022-08-21T05:14:30.397Z,5964.00
2022-08-21T05:15:30.467Z,6072.00
2022-08-21T05:16:37.227Z,6244.00
2022-08-21T05:17:31.367Z,6172.00
2022-08-21T05:18:30.356Z,6396.00
2022-08-21T05:19:30.331Z,6536.00
2022-08-21T05:20:30.320Z,6668.00
2022-08-21T05:21:30.373Z,6760.00
2022-08-21T05:22:33.287Z,6856.00
2022-08-21T05:23:33.329Z,7128.00
2022-08-21T05:24:30.258Z,7196.00
2022-08-21T05:25:30.250Z,7288.00
2022-08-21T05:26:30.233Z,7468.00
2022-08-21T05:27:30.264Z,7560.00
2022-08-21T05:28:30.239Z,7644.00
2022-08-21T05:29:30.205Z,7724.00
2022-08-21T05:30:30.184Z,7816.00
2022-08-21T05:31:30.175Z,7904.00
2022-08-21T05:32:30.165Z,7988.00
2022-08-21T05:33:30.176Z,8120.00
2022-08-21T05:34:30.135Z,8248.00
2022-08-21T05:35:30.132Z,8280.00
2022-08-21T05:36:30.106Z,8312.00
2022-08-21T05:37:30.095Z,8276.00
2022-08-21T05:38:30.098Z,8360.00
2022-08-21T05:39:30.064Z,8428.00
2022-08-21T05:40:31.095Z,8464.00
2022-08-21T05:41:30.028Z,8512.00
2022-08-21T05:42:33.034Z,8556.00
2022-08-21T05:43:33.053Z,8620.00
2022-08-21T05:44:29.979Z,8636.00
2022-08-21T05:45:43.115Z,8664.00
2022-08-21T05:46:30.974Z,8712.00
2022-08-21T05:47:29.951Z,8772.00
2022-08-21T05:48:29.965Z,8776.00
2022-08-21T05:49:29.922Z,8828.00
2022-08-21T05:50:33.544Z,8880.00
2022-08-21T05:51:29.905Z,8928.00
2022-08-21T05:52:29.919Z,8964.00
2022-08-21T05:53:29.862Z,9012.00
2022-08-21T05:54:29.865Z,9060.00
2022-08-21T05:55:29.841Z,9136.00
2022-08-21T05:56:29.894Z,9204.00
2022-08-21T05:57:29.830Z,9224.00
2022-08-21T05:58:29.795Z,9252.00
2022-08-21T05:59:29.786Z,9280.00
2022-08-21T06:00:29.800Z,9328.00
2022-08-21T06:01:29.818Z,9300.00
2022-08-21T06:02:32.807Z,9336.00
2022-08-21T06:03:32.751Z,9340.00
2022-08-21T06:04:29.716Z,9372.00
2022-08-21T06:05:37.278Z,9272.00
2022-08-21T06:06:30.687Z,9320.00
2022-08-21T06:07:29.681Z,9364.00
2022-08-21T06:08:29.713Z,9324.00
2022-08-21T06:09:29.669Z,9324.00
2022-08-21T06:10:29.640Z,9312.00
2022-08-21T06:11:29.623Z,9284.00
2022-08-21T06:12:29.621Z,9192.00
2022-08-21T06:13:29.602Z,9124.00
2022-08-21T06:14:29.612Z,8924.00
2022-08-21T06:15:29.592Z,8748.00
2022-08-21T06:16:29.553Z,8524.00
2022-08-21T06:17:29.552Z,8244.00
2022-08-21T06:18:29.581Z,7908.00
2022-08-21T06:19:29.537Z,7624.00
2022-08-21T06:20:29.504Z,7340.00
2022-08-21T06:21:29.493Z,7068.00
2022-08-21T06:22:32.526Z,6772.00
2022-08-21T06:23:33.427Z,6448.00
2022-08-21T06:24:29.456Z,6152.00
2022-08-21T06:25:29.463Z,5872.00
2022-08-21T06:26:29.433Z,5592.00
2022-08-21T06:27:29.413Z,5340.00
2022-08-21T06:28:29.405Z,5120.00
2022-08-21T06:29:29.408Z,4904.00
2022-08-21T06:30:30.378Z,4692.00
2022-08-21T06:31:29.363Z,4488.00
2022-08-21T06:32:29.347Z,4304.00
2022-08-21T06:33:32.537Z,4192.00
2022-08-21T06:34:29.351Z,4144.00
2022-08-21T06:35:29.301Z,4116.00
2022-08-21T06:36:29.291Z,4108.00
2022-08-21T06:37:29.280Z,4100.00
2022-08-21T06:38:29.302Z,4088.00
2022-08-21T06:39:30.585Z,4092.00
2022-08-21T06:40:29.946Z,4104.00
2022-08-21T06:41:29.222Z,4120.00
2022-08-21T06:42:32.214Z,4124.00
2022-08-21T06:43:39.587Z,4120.00
2022-08-21T06:44:30.174Z,4116.00
2022-08-21T06:45:32.281Z,4116.00
2022-08-21T06:46:29.150Z,4104.00
2022-08-21T06:47:29.138Z,4100.00
2022-08-21T06:48:29.138Z,4088.00
2022-08-21T06:49:29.105Z,4088.00
2022-08-21T06:50:29.087Z,4084.00
2022-08-21T06:51:29.097Z,4092.00
2022-08-21T06:52:29.067Z,4088.00
2022-08-21T06:53:29.078Z,4096.00
2022-08-21T06:54:29.057Z,4104.00
2022-08-21T06:55:29.349Z,4100.00
2022-08-21T06:56:29.061Z,4100.00
2022-08-21T06:57:29.008Z,4096.00
2022-08-21T06:58:28.971Z,4100.00
2022-08-21T06:59:28.960Z,4092.00
2022-08-21T07:00:28.957Z,4088.00
2022-08-21T07:01:28.993Z,4092.00
2022-08-21T07:02:31.961Z,4080.00
2022-08-21T07:03:31.913Z,4076.00
2022-08-21T07:04:28.896Z,4080.00
2022-08-21T07:05:28.871Z,4076.00
2022-08-21T07:06:28.866Z,4072.00
2022-08-21T07:07:28.864Z,4072.00
2022-08-21T07:08:28.868Z,4072.00
2022-08-21T07:09:28.813Z,4064.00
2022-08-21T07:10:28.804Z,4056.00
2022-08-21T07:11:28.806Z,4060.00
2022-08-21T07:12:28.776Z,4056.00
2022-08-21T07:13:28.778Z,4052.00
2022-08-21T07:14:28.751Z,4040.00
2022-08-21T07:15:28.729Z,4036.00
2022-08-21T07:16:28.724Z,4016.00
2022-08-21T07:17:28.698Z,4012.00
2022-08-21T07:18:28.729Z,4000.00
2022-08-21T07:19:28.669Z,3992.00
2022-08-21T07:20:28.666Z,3976.00
2022-08-21T07:21:28.709Z,3968.00
2022-08-21T07:22:31.631Z,3948.00
2022-08-21T07:23:31.624Z,3936.00
2022-08-21T07:24:28.602Z,3928.00
2022-08-21T07:25:28.601Z,3924.00
2022-08-21T07:26:28.573Z,3920.00
2022-08-21T07:27:28.582Z,3908.00
2022-08-21T07:28:28.579Z,3900.00
2022-08-21T07:29:28.553Z,3896.00
2022-08-21T07:30:28.514Z,3892.00
2022-08-21T07:31:28.512Z,3884.00
2022-08-21T07:32:28.485Z,3876.00
2022-08-21T07:33:28.504Z,3868.00
2022-08-21T07:34:28.469Z,3860.00
2022-08-21T07:35:28.473Z,3860.00
2022-08-21T07:36:28.438Z,3852.00
2022-08-21T07:37:28.426Z,3848.00
2022-08-21T07:38:28.437Z,3844.00
2022-08-21T07:39:28.405Z,3840.00
2022-08-21T07:40:28.380Z,3840.00
2022-08-21T07:41:28.367Z,3840.00
2022-08-21T07:42:31.356Z,3836.00
2022-08-21T07:43:31.408Z,3828.00
2022-08-21T07:44:28.350Z,3828.00
2022-08-21T07:45:28.320Z,3828.00
2022-08-21T07:46:28.309Z,3828.00
2022-08-21T07:47:41.482Z,3816.00
2022-08-21T07:48:29.279Z,3808.00
2022-08-21T07:49:28.283Z,3800.00
2022-08-21T07:50:28.243Z,3788.00
2022-08-21T07:51:28.235Z,3772.00
2022-08-21T07:52:28.242Z,3760.00
2022-08-21T07:53:28.214Z,3744.00
2022-08-21T07:54:33.999Z,3724.00
2022-08-21T07:55:29.174Z,3708.00
2022-08-21T07:56:28.161Z,3696.00
2022-08-21T07:57:28.153Z,3684.00
2022-08-21T07:58:28.147Z,3668.00
2022-08-21T07:59:28.127Z,3660.00
2022-08-21T08:00:28.147Z,3656.00
2022-08-21T08:01:28.141Z,3632.00
2022-08-21T08:02:31.095Z,3620.00
2022-08-21T08:03:31.081Z,3604.00
2022-08-21T08:04:28.064Z,3596.00
2022-08-21T08:05:28.198Z,3580.00
2022-08-21T08:06:28.029Z,3572.00
2022-08-21T08:07:28.022Z,3552.00
2022-08-21T08:08:28.000Z,3544.00
2022-08-21T08:09:28.007Z,3528.00
2022-08-21T08:10:27.979Z,3524.00
2022-08-21T08:11:27.992Z,3508.00
2022-08-21T08:12:27.951Z,3492.00
2022-08-21T08:13:27.961Z,3488.00
2022-08-21T08:14:31.337Z,3500.00
2022-08-21T08:15:27.903Z,3488.00
2022-08-21T08:16:29.408Z,3480.00
2022-08-21T08:17:27.895Z,3476.00
2022-08-21T08:18:27.913Z,3468.00
2022-08-21T08:19:27.855Z,3476.00
2022-08-21T08:20:27.896Z,3480.00
2022-08-21T08:21:28.599Z,3500.00
2022-08-21T08:22:30.833Z,3508.00
2022-08-21T08:23:30.848Z,3536.00
2022-08-21T08:24:27.796Z,3576.00
2022-08-21T08:25:27.797Z,3600.00
2022-08-21T08:26:30.245Z,3604.00
2022-08-21T08:27:27.769Z,3560.00
2022-08-21T08:28:27.738Z,3536.00
2022-08-21T08:29:27.720Z,3560.00
2022-08-21T08:30:31.258Z,2356.00
2022-08-21T08:31:29.471Z,2392.00
2022-08-21T08:32:27.701Z,2324.00
2022-08-21T08:33:27.672Z,2372.00
2022-08-21T08:34:27.682Z,3576.00
2022-08-21T08:35:27.681Z,3588.00
2022-08-21T08:36:29.110Z,2308.00
2022-08-21T08:37:31.519Z,2252.00
2022-08-21T08:38:28.604Z,3488.00
2022-08-21T08:39:29.440Z,3168.00
2022-08-21T08:40:27.583Z,2308.00
2022-08-21T08:41:30.903Z,3576.00
2022-08-21T08:42:33.051Z,3660.00
2022-08-21T08:43:30.546Z,3680.00
2022-08-21T08:44:27.529Z,2924.00
2022-08-21T08:45:27.512Z,2428.00
2022-08-21T08:46:28.246Z,3648.00
2022-08-21T08:47:27.496Z,3664.00
2022-08-21T08:48:27.480Z,3660.00
2022-08-21T08:49:27.448Z,3664.00
2022-08-21T08:50:27.441Z,3712.00
2022-08-21T08:51:28.197Z,3564.00
2022-08-21T08:52:27.449Z,3604.00
2022-08-21T08:53:27.408Z,3624.00
2022-08-21T08:54:27.400Z,3608.00
2022-08-21T08:55:27.548Z,3596.00
2022-08-21T08:56:28.132Z,3596.00
2022-08-21T08:57:27.391Z,3584.00
2022-08-21T08:58:27.335Z,3544.00
2022-08-21T08:59:27.315Z,3480.00
2022-08-21T09:00:27.304Z,3444.00
2022-08-21T09:01:28.151Z,3528.00
2022-08-21T09:02:30.367Z,3548.00
2022-08-21T09:03:30.295Z,3560.00
2022-08-21T09:04:27.264Z,3572.00
2022-08-21T09:05:27.235Z,3640.00
2022-08-21T09:06:27.995Z,3572.00
2022-08-21T09:07:27.216Z,2364.00
2022-08-21T09:08:27.237Z,2412.00
2022-08-21T09:09:27.208Z,3424.00
2022-08-21T09:10:27.178Z,3492.00
2022-08-21T09:11:27.186Z,2376.00
2022-08-21T09:12:27.146Z,3484.00
2022-08-21T09:13:27.129Z,3580.00
2022-08-21T09:14:27.302Z,3564.00
2022-08-21T09:15:27.108Z,3552.00
2022-08-21T09:16:27.864Z,3576.00
2022-08-21T09:17:27.094Z,3556.00
2022-08-21T09:18:27.062Z,3560.00
2022-08-21T09:19:27.082Z,3568.00
2022-08-21T09:20:27.032Z,3608.00
2022-08-21T09:21:27.783Z,2916.00
2022-08-21T09:22:30.023Z,2980.00
2022-08-21T09:23:30.012Z,2488.00
2022-08-21T09:24:27.053Z,3532.00
2022-08-21T09:25:26.966Z,3556.00
2022-08-21T09:26:26.956Z,3528.00
2022-08-21T09:27:26.936Z,3536.00
2022-08-21T09:28:26.926Z,3532.00
2022-08-21T09:29:26.927Z,3528.00
2022-08-21T09:30:26.926Z,3564.00
2022-08-21T09:31:26.886Z,3584.00
2022-08-21T09:32:36.623Z,3576.00
2022-08-21T09:33:27.858Z,3560.00
2022-08-21T09:34:26.871Z,3552.00
2022-08-21T09:35:26.852Z,3600.00
2022-08-21T09:36:26.813Z,3600.00
2022-08-21T09:37:26.809Z,3572.00
2022-08-21T09:38:26.801Z,3552.00
2022-08-21T09:39:26.797Z,3528.00
2022-08-21T09:40:26.838Z,3560.00
2022-08-21T09:41:26.760Z,3568.00
2022-08-21T09:42:29.732Z,3568.00
2022-08-21T09:43:29.741Z,3560.00
2022-08-21T09:44:26.727Z,3588.00
2022-08-21T09:45:26.735Z,3600.00
2022-08-21T09:46:26.685Z,3600.00
2022-08-21T09:47:26.982Z,3588.00
2022-08-21T09:48:27.157Z,3584.00
2022-08-21T09:49:27.635Z,3588.00
2022-08-21T09:50:26.638Z,3580.00
2022-08-21T09:51:26.638Z,3560.00
2022-08-21T09:52:26.657Z,3564.00
2022-08-21T09:53:26.588Z,3564.00
2022-08-21T09:54:26.575Z,3560.00
2022-08-21T09:55:26.562Z,3564.00
2022-08-21T09:56:26.558Z,3564.00
2022-08-21T09:57:26.529Z,3588.00
2022-08-21T09:58:26.570Z,3608.00
2022-08-21T09:59:26.509Z,3620.00
2022-08-21T10:00:26.500Z,3640.00
2022-08-21T10:01:26.546Z,3644.00
2022-08-21T10:02:29.464Z,3636.00
2022-08-21T10:03:29.522Z,3640.00
2022-08-21T10:04:26.444Z,3668.00
2022-08-21T10:05:26.422Z,3708.00
2022-08-21T10:06:26.413Z,3744.00
2022-08-21T10:07:26.414Z,3776.00
2022-08-21T10:08:26.393Z,3748.00
2022-08-21T10:09:26.396Z,3768.00
2022-08-21T10:10:26.378Z,3780.00
2022-08-21T10:11:26.352Z,3876.00
2022-08-21T10:12:26.353Z,3992.00
2022-08-21T10:13:26.339Z,4004.00
2022-08-21T10:14:26.382Z,3976.00
2022-08-21T10:15:26.289Z,2316.00
2022-08-21T10:16:26.277Z,3948.00
2022-08-21T10:17:26.268Z,4016.00
2022-08-21T10:18:26.274Z,4092.00
2022-08-21T10:19:26.239Z,4264.00
2022-08-21T10:20:26.284Z,4544.00
2022-08-21T10:21:26.220Z,4848.00
2022-08-21T10:22:29.208Z,5068.00
2022-08-21T10:23:29.192Z,5344.00
2022-08-21T10:24:31.230Z,5496.00
2022-08-21T10:25:27.174Z,5580.00
2022-08-21T10:26:26.149Z,5464.00
2022-08-21T10:27:26.133Z,5380.00
2022-08-21T10:28:26.125Z,5252.00
2022-08-21T10:29:26.105Z,5120.00
2022-08-21T10:30:26.124Z,5200.00
2022-08-21T10:31:26.087Z,5536.00
2022-08-21T10:32:26.784Z,5676.00
2022-08-21T10:33:26.086Z,5740.00
2022-08-21T10:34:26.047Z,5724.00
2022-08-21T10:35:26.035Z,5648.00
2022-08-21T10:36:26.018Z,3660.00
2022-08-21T10:37:25.999Z,5280.00
2022-08-21T10:38:52.599Z,3580.00
2022-08-21T10:39:35.467Z,3532.00
2022-08-21T10:40:27.000Z,3544.00
2022-08-21T10:41:25.970Z,5344.00
2022-08-21T10:42:29.020Z,5560.00
2022-08-21T10:43:28.940Z,5552.00
2022-08-21T10:44:25.949Z,5364.00
2022-08-21T10:45:25.891Z,5232.00
2022-08-21T10:46:25.879Z,5200.00
2022-08-21T10:47:25.875Z,5172.00
2022-08-21T10:48:25.866Z,5084.00
2022-08-21T10:49:25.841Z,3268.00
2022-08-21T10:50:25.884Z,3212.00
2022-08-21T10:51:29.240Z,3128.00
2022-08-21T10:52:25.820Z,3148.00
2022-08-21T10:53:25.846Z,3388.00
2022-08-21T10:54:25.775Z,5400.00
2022-08-21T10:55:25.755Z,5540.00
2022-08-21T10:56:25.780Z,3772.00
2022-08-21T10:57:29.861Z,3712.00
2022-08-21T10:58:26.729Z,3792.00
2022-08-21T10:59:25.697Z,3924.00
2022-08-21T11:00:25.828Z,5820.00
2022-08-21T11:01:25.718Z,6020.00
2022-08-21T11:02:28.715Z,6264.00
2022-08-21T11:03:28.660Z,6268.00
2022-08-21T11:04:25.677Z,6188.00
2022-08-21T11:05:25.628Z,4864.00
2022-08-21T11:06:25.640Z,4332.00
2022-08-21T11:07:25.621Z,4032.00
2022-08-21T11:08:26.644Z,3792.00
2022-08-21T11:09:25.576Z,5404.00
2022-08-21T11:10:25.722Z,5268.00
2022-08-21T11:11:25.540Z,5208.00
2022-08-21T11:12:25.726Z,5156.00
2022-08-21T11:13:31.159Z,5080.00
2022-08-21T11:14:26.542Z,4952.00
2022-08-21T11:15:29.385Z,4872.00
2022-08-21T11:16:25.496Z,5048.00
2022-08-21T11:17:25.482Z,5176.00
2022-08-21T11:18:25.485Z,5288.00
2022-08-21T11:19:25.488Z,5460.00
2022-08-21T11:20:25.477Z,5372.00
2022-08-21T11:21:25.408Z,5216.00
2022-08-21T11:22:28.390Z,5176.00
2022-08-21T11:23:28.449Z,5188.00
2022-08-21T11:24:25.368Z,5204.00
2022-08-21T11:25:25.449Z,5168.00
2022-08-21T11:26:26.340Z,5344.00
2022-08-21T11:27:25.330Z,3668.00
2022-08-21T11:28:25.310Z,3548.00
2022-08-21T11:29:25.337Z,3548.00
2022-08-21T11:30:25.313Z,3876.00
2022-08-21T11:31:25.274Z,3940.00
2022-08-21T11:32:25.262Z,4024.00
2022-08-21T11:33:25.304Z,3968.00
2022-08-21T11:34:25.247Z,4952.00
2022-08-21T11:35:25.225Z,5536.00
2022-08-21T11:36:25.219Z,5432.00
2022-08-21T11:37:25.218Z,5316.00
2022-08-21T11:38:25.209Z,5152.00
2022-08-21T11:39:25.347Z,5008.00
2022-08-21T11:40:25.209Z,3600.00
2022-08-21T11:41:25.149Z,3028.00
2022-08-21T11:42:28.136Z,3192.00
2022-08-21T11:43:28.127Z,3812.00
2022-08-21T11:44:25.121Z,3660.00
2022-08-21T11:45:28.114Z,3728.00
2022-08-21T11:46:25.071Z,3688.00
2022-08-21T11:47:25.111Z,3624.00
2022-08-21T11:48:25.071Z,3596.00
2022-08-21T11:49:25.032Z,3568.00
2022-08-21T11:50:34.292Z,3608.00
2022-08-21T11:51:26.074Z,3584.00
2022-08-21T11:52:24.994Z,3552.00
2022-08-21T11:53:25.006Z,3592.00
2022-08-21T11:54:24.984Z,3720.00
2022-08-21T11:55:24.971Z,3824.00
2022-08-21T11:56:24.940Z,3816.00
2022-08-21T11:57:24.956Z,3860.00
2022-08-21T11:58:24.906Z,3908.00
2022-08-21T11:59:24.907Z,3968.00
2022-08-21T12:00:24.899Z,3920.00
2022-08-21T12:01:24.888Z,3928.00
2022-08-21T12:02:27.896Z,5932.00
2022-08-21T12:03:27.869Z,4136.00
2022-08-21T12:04:26.228Z,4180.00
2022-08-21T12:05:24.851Z,5488.00
2022-08-21T12:06:24.811Z,6116.00
2022-08-21T12:07:24.800Z,5924.00
2022-08-21T12:08:24.799Z,4760.00
2022-08-21T12:09:24.778Z,5644.00
2022-08-21T12:10:24.813Z,5608.00
2022-08-21T12:11:24.753Z,5512.00
2022-08-21T12:12:25.744Z,3712.00
2022-08-21T12:13:40.371Z,3596.00
2022-08-21T12:14:25.702Z,4320.00
2022-08-21T12:15:24.695Z,3804.00
2022-08-21T12:16:24.708Z,5732.00
2022-08-21T12:17:24.656Z,5944.00
2022-08-21T12:18:24.644Z,5972.00
2022-08-21T12:19:24.648Z,6248.00
2022-08-21T12:20:24.667Z,6368.00
2022-08-21T12:21:24.609Z,6428.00
2022-08-21T12:22:27.591Z,6276.00
2022-08-21T12:23:27.590Z,6148.00
2022-08-21T12:24:24.570Z,6032.00
2022-08-21T12:25:24.550Z,5868.00
2022-08-21T12:26:24.598Z,5768.00
2022-08-21T12:27:24.521Z,5796.00
2022-08-21T12:28:24.509Z,5292.00
2022-08-21T12:29:24.512Z,5616.00